sensor_id;sensor_type;location;lat;lon;timestamp;pressure;altitude;pressure_sealevel;temperature;humidity
37634;BME280;32048;49.902;22.508;2023-07-20T00:01:52;97953.34;;;15.49;100.00
37634;BME280;32048;49.902;22.508;2023-07-20T00:04:20;97947.31;;;15.47;100.00
37634;BME280;32048;49.902;22.508;2023-07-20T00:06:47;97948.41;;;15.44;100.00
37634;BME280;32048;49.902;22.508;2023-07-20T00:09:14;97952.19;;;15.42;100.00
37634;BME280;32048;49.902;22.508;2023-07-20T00:11:48;97949.91;;;15.37;100.00
37634;BME280;32048;49.902;22.508;2023-07-20T00:14:16;97948.25;;;15.36;100.00
37634;BME280;32048;49.902;22.508;2023-07-20T00:16:43;97954.41;;;15.36;100.00
37634;BME280;32048;49.902;22.508;2023-07-20T00:19:10;97942.94;;;15.36;100.00
37634;BME280;32048;49.902;22.508;2023-07-20T00:21:37;97941.94;;;15.37;100.00
37634;BME280;32048;49.902;22.508;2023-07-20T00:24:07;97932.28;;;15.36;100.00
37634;BME280;32048;49.902;22.508;2023-07-20T00:26:34;97940.00;;;15.39;100.00
37634;BME280;32048;49.902;22.508;2023-07-20T00:29:01;97937.47;;;15.37;100.00
37634;BME280;32048;49.902;22.508;2023-07-20T00:31:28;97935.78;;;15.36;100.00
37634;BME280;32048;49.902;22.508;2023-07-20T00:33:56;97935.06;;;15.34;100.00
37634;BME280;32048;49.902;22.508;2023-07-20T00:36:23;97941.22;;;15.35;100.00
37634;BME280;32048;49.902;22.508;2023-07-20T00:38:50;97938.56;;;15.35;100.00
37634;BME280;32048;49.902;22.508;2023-07-20T00:41:17;97945.31;;;15.39;100.00
37634;BME280;32048;49.902;22.508;2023-07-20T00:43:44;97938.78;;;15.43;100.00
37634;BME280;32048;49.902;22.508;2023-07-20T00:46:11;97942.59;;;15.50;100.00
37634;BME280;32048;49.902;22.508;2023-07-20T00:48:40;97941.53;;;15.63;100.00
37634;BME280;32048;49.902;22.508;2023-07-20T00:51:08;97932.00;;;15.81;100.00
37634;BME280;32048;49.902;22.508;2023-07-20T00:53:36;97921.41;;;15.91;100.00
37634;BME280;32048;49.902;22.508;2023-07-20T00:56:03;97926.50;;;16.04;100.00
37634;BME280;32048;49.902;22.508;2023-07-20T00:58:32;97929.19;;;16.13;100.00
37634;BME280;32048;49.902;22.508;2023-07-20T01:00:58;97932.44;;;16.27;100.00
37634;BME280;32048;49.902;22.508;2023-07-20T01:03:26;97928.13;;;16.35;100.00
37634;BME280;32048;49.902;22.508;2023-07-20T01:11:37;97912.19;;;16.55;100.00
37634;BME280;32048;49.902;22.508;2023-07-20T01:14:06;97918.06;;;16.58;100.00
37634;BME280;32048;49.902;22.508;2023-07-20T01:16:33;97923.16;;;16.61;100.00
37634;BME280;32048;49.902;22.508;2023-07-20T01:19:01;97917.09;;;16.69;100.00
37634;BME280;32048;49.902;22.508;2023-07-20T01:21:33;97914.72;;;16.76;100.00
37634;BME280;32048;49.902;22.508;2023-07-20T01:30:08;97917.16;;;16.89;100.00
37634;BME280;32048;49.902;22.508;2023-07-20T01:32:40;97922.06;;;16.93;100.00
37634;BME280;32048;49.902;22.508;2023-07-20T01:35:10;97915.47;;;16.97;100.00
37634;BME280;32048;49.902;22.508;2023-07-20T01:37:43;97925.56;;;17.03;100.00
37634;BME280;32048;49.902;22.508;2023-07-20T01:40:13;97923.75;;;17.04;100.00
37634;BME280;32048;49.902;22.508;2023-07-20T01:42:45;97925.00;;;17.10;100.00
37634;BME280;32048;49.902;22.508;2023-07-20T01:45:14;97929.78;;;17.16;100.00
37634;BME280;32048;49.902;22.508;2023-07-20T01:47:41;97940.16;;;17.19;100.00
37634;BME280;32048;49.902;22.508;2023-07-20T01:50:08;97932.72;;;17.22;100.00
37634;BME280;32048;49.902;22.508;2023-07-20T01:52:35;97926.25;;;17.25;100.00
37634;BME280;32048;49.902;22.508;2023-07-20T01:55:03;97927.66;;;17.29;100.00
37634;BME280;32048;49.902;22.508;2023-07-20T01:57:31;97935.38;;;17.32;100.00
37634;BME280;32048;49.902;22.508;2023-07-20T01:59:58;97922.59;;;17.36;100.00
37634;BME280;32048;49.902;22.508;2023-07-20T02:02:27;97920.78;;;17.36;100.00
37634;BME280;32048;49.902;22.508;2023-07-20T02:04:55;97915.28;;;17.38;100.00
37634;BME280;32048;49.902;22.508;2023-07-20T02:07:22;97921.34;;;17.40;100.00
37634;BME280;32048;49.902;22.508;2023-07-20T02:09:49;97919.22;;;17.34;100.00
37634;BME280;32048;49.902;22.508;2023-07-20T02:12:16;97923.44;;;17.36;100.00
37634;BME280;32048;49.902;22.508;2023-07-20T02:14:43;97926.94;;;17.37;100.00
37634;BME280;32048;49.902;22.508;2023-07-20T02:17:10;97921.34;;;17.30;100.00
37634;BME280;32048;49.902;22.508;2023-07-20T02:19:38;97908.41;;;17.25;100.00
37634;BME280;32048;49.902;22.508;2023-07-20T02:22:05;97915.28;;;17.28;100.00
37634;BME280;32048;49.902;22.508;2023-07-20T02:24:33;97923.59;;;17.25;100.00
37634;BME280;32048;49.902;22.508;2023-07-20T02:27:00;97919.38;;;17.22;100.00
37634;BME280;32048;49.902;22.508;2023-07-20T02:29:28;97912.66;;;17.18;100.00
37634;BME280;32048;49.902;22.508;2023-07-20T02:31:55;97914.63;;;17.16;100.00
37634;BME280;32048;49.902;22.508;2023-07-20T02:34:22;97917.41;;;17.15;100.00
37634;BME280;32048;49.902;22.508;2023-07-20T02:36:49;97920.06;;;17.15;100.00
37634;BME280;32048;49.902;22.508;2023-07-20T02:39:16;97923.34;;;17.09;100.00
37634;BME280;32048;49.902;22.508;2023-07-20T02:41:43;97915.03;;;17.12;100.00
37634;BME280;32048;49.902;22.508;2023-07-20T02:44:11;97897.91;;;17.14;100.00
37634;BME280;32048;49.902;22.508;2023-07-20T02:46:38;97901.97;;;17.18;100.00
37634;BME280;32048;49.902;22.508;2023-07-20T02:49:05;97899.59;;;17.15;100.00
37634;BME280;32048;49.902;22.508;2023-07-20T02:51:32;97902.09;;;17.17;100.00
37634;BME280;32048;49.902;22.508;2023-07-20T02:53:59;97892.28;;;17.17;100.00
37634;BME280;32048;49.902;22.508;2023-07-20T02:56:26;97886.25;;;17.15;100.00
37634;BME280;32048;49.902;22.508;2023-07-20T02:58:54;97894.13;;;17.07;100.00
37634;BME280;32048;49.902;22.508;2023-07-20T03:01:21;97894.25;;;17.06;100.00
37634;BME280;32048;49.902;22.508;2023-07-20T03:03:48;97888.09;;;17.05;100.00
37634;BME280;32048;49.902;22.508;2023-07-20T03:06:16;97886.25;;;17.06;100.00
37634;BME280;32048;49.902;22.508;2023-07-20T03:08:43;97885.28;;;17.07;100.00
37634;BME280;32048;49.902;22.508;2023-07-20T03:11:12;97898.63;;;17.07;100.00
37634;BME280;32048;49.902;22.508;2023-07-20T03:13:39;97884.44;;;17.06;100.00
37634;BME280;32048;49.902;22.508;2023-07-20T03:16:06;97896.50;;;17.10;100.00
37634;BME280;32048;49.902;22.508;2023-07-20T03:18:38;97893.84;;;17.10;100.00
37634;BME280;32048;49.902;22.508;2023-07-20T03:21:09;97894.81;;;17.09;100.00
37634;BME280;32048;49.902;22.508;2023-07-20T03:23:39;97896.50;;;17.10;100.00
37634;BME280;32048;49.902;22.508;2023-07-20T03:26:07;97906.03;;;17.13;100.00
37634;BME280;32048;49.902;22.508;2023-07-20T03:28:36;97911.09;;;17.16;100.00
37634;BME280;32048;49.902;22.508;2023-07-20T03:31:03;97913.47;;;17.19;100.00
37634;BME280;32048;49.902;22.508;2023-07-20T03:33:31;97911.22;;;17.24;100.00
37634;BME280;32048;49.902;22.508;2023-07-20T03:35:58;97913.31;;;17.30;100.00
37634;BME280;32048;49.902;22.508;2023-07-20T03:38:26;97906.59;;;17.36;100.00
37634;BME280;32048;49.902;22.508;2023-07-20T03:40:56;97900.25;;;17.37;100.00
37634;BME280;32048;49.902;22.508;2023-07-20T03:43:24;97908.56;;;17.34;100.00
37634;BME280;32048;49.902;22.508;2023-07-20T03:45:52;97904.88;;;17.35;100.00
37634;BME280;32048;49.902;22.508;2023-07-20T03:48:23;97897.16;;;17.41;100.00
37634;BME280;32048;49.902;22.508;2023-07-20T03:50:52;97900.25;;;17.47;100.00
37634;BME280;32048;49.902;22.508;2023-07-20T03:53:19;97902.19;;;17.54;100.00
37634;BME280;32048;49.902;22.508;2023-07-20T03:55:48;97892.47;;;17.63;100.00
37634;BME280;32048;49.902;22.508;2023-07-20T03:58:15;97903.09;;;17.73;100.00
37634;BME280;32048;49.902;22.508;2023-07-20T04:00:47;97899.16;;;17.86;100.00
37634;BME280;32048;49.902;22.508;2023-07-20T04:03:15;97896.28;;;17.98;100.00
37634;BME280;32048;49.902;22.508;2023-07-20T04:05:43;97898.75;;;18.09;100.00
37634;BME280;32048;49.902;22.508;2023-07-20T04:08:11;97907.44;;;18.21;100.00
37634;BME280;32048;49.902;22.508;2023-07-20T04:10:38;97908.47;;;18.38;100.00
37634;BME280;32048;49.902;22.508;2023-07-20T04:13:06;97907.66;;;18.55;100.00
37634;BME280;32048;49.902;22.508;2023-07-20T04:15:33;97912.19;;;18.73;100.00
37634;BME280;32048;49.902;22.508;2023-07-20T04:18:00;97911.31;;;18.82;100.00
37634;BME280;32048;49.902;22.508;2023-07-20T04:20:28;97905.72;;;18.93;100.00
37634;BME280;32048;49.902;22.508;2023-07-20T04:22:55;97916.41;;;19.11;100.00
37634;BME280;32048;49.902;22.508;2023-07-20T04:25:22;97915.78;;;19.35;100.00
37634;BME280;32048;49.902;22.508;2023-07-20T04:27:49;97917.06;;;19.57;100.00
37634;BME280;32048;49.902;22.508;2023-07-20T04:30:17;97928.94;;;19.72;100.00
37634;BME280;32048;49.902;22.508;2023-07-20T04:32:47;97930.56;;;19.91;100.00
37634;BME280;32048;49.902;22.508;2023-07-20T04:35:21;97923.81;;;20.13;100.00
37634;BME280;32048;49.902;22.508;2023-07-20T04:38:05;97929.56;;;20.35;100.00
37634;BME280;32048;49.902;22.508;2023-07-20T04:40:32;97927.28;;;20.48;100.00
37634;BME280;32048;49.902;22.508;2023-07-20T04:42:59;97939.03;;;20.55;100.00
37634;BME280;32048;49.902;22.508;2023-07-20T04:45:26;97936.25;;;20.65;100.00
37634;BME280;32048;49.902;22.508;2023-07-20T04:47:53;97943.47;;;20.73;100.00
37634;BME280;32048;49.902;22.508;2023-07-20T04:50:20;97940.00;;;20.81;100.00
37634;BME280;32048;49.902;22.508;2023-07-20T04:52:48;97950.88;;;20.87;100.00
37634;BME280;32048;49.902;22.508;2023-07-20T04:55:14;97975.69;;;20.89;100.00
37634;BME280;32048;49.902;22.508;2023-07-20T04:57:42;97984.94;;;20.87;100.00
37634;BME280;32048;49.902;22.508;2023-07-20T05:00:09;97988.44;;;20.79;100.00
37634;BME280;32048;49.902;22.508;2023-07-20T05:02:38;97991.38;;;20.60;100.00
37634;BME280;32048;49.902;22.508;2023-07-20T05:05:05;98006.56;;;20.51;100.00
37634;BME280;32048;49.902;22.508;2023-07-20T05:07:33;98016.13;;;20.45;100.00
37634;BME280;32048;49.902;22.508;2023-07-20T05:10:00;98027.59;;;20.29;100.00
37634;BME280;32048;49.902;22.508;2023-07-20T05:12:27;98043.34;;;20.06;100.00
37634;BME280;32048;49.902;22.508;2023-07-20T05:14:54;98039.81;;;19.80;100.00
37634;BME280;32048;49.902;22.508;2023-07-20T05:17:21;98033.16;;;19.66;100.00
37634;BME280;32048;49.902;22.508;2023-07-20T05:19:48;98035.47;;;19.43;100.00
37634;BME280;32048;49.902;22.508;2023-07-20T05:22:16;98027.28;;;19.08;100.00
37634;BME280;32048;49.902;22.508;2023-07-20T05:24:43;98024.50;;;19.00;100.00
37634;BME280;32048;49.902;22.508;2023-07-20T05:27:10;98020.69;;;18.75;100.00
37634;BME280;32048;49.902;22.508;2023-07-20T05:29:37;98025.03;;;18.76;100.00
37634;BME280;32048;49.902;22.508;2023-07-20T05:32:05;98020.31;;;18.70;100.00
37634;BME280;32048;49.902;22.508;2023-07-20T05:34:33;98021.94;;;18.53;100.00
37634;BME280;32048;49.902;22.508;2023-07-20T05:37:00;98017.88;;;18.49;100.00
37634;BME280;32048;49.902;22.508;2023-07-20T05:39:27;98027.47;;;18.42;100.00
37634;BME280;32048;49.902;22.508;2023-07-20T05:41:54;98025.28;;;18.27;100.00
37634;BME280;32048;49.902;22.508;2023-07-20T05:44:21;98045.97;;;18.25;100.00
37634;BME280;32048;49.902;22.508;2023-07-20T05:46:48;98052.31;;;18.15;100.00
37634;BME280;32048;49.902;22.508;2023-07-20T05:49:23;98067.09;;;18.09;100.00
37634;BME280;32048;49.902;22.508;2023-07-20T05:51:50;98058.38;;;18.07;100.00
37634;BME280;32048;49.902;22.508;2023-07-20T05:54:17;98050.97;;;17.81;100.00
37634;BME280;32048;49.902;22.508;2023-07-20T05:56:45;98054.06;;;17.86;100.00
37634;BME280;32048;49.902;22.508;2023-07-20T05:59:13;98037.59;;;17.91;100.00
37634;BME280;32048;49.902;22.508;2023-07-20T06:01:40;98032.56;;;17.88;100.00
37634;BME280;32048;49.902;22.508;2023-07-20T06:04:07;98047.31;;;17.92;100.00
37634;BME280;32048;49.902;22.508;2023-07-20T06:06:34;98058.69;;;17.84;100.00
37634;BME280;32048;49.902;22.508;2023-07-20T06:09:02;98067.84;;;17.82;100.00
37634;BME280;32048;49.902;22.508;2023-07-20T06:11:34;98064.16;;;17.73;100.00
37634;BME280;32048;49.902;22.508;2023-07-20T06:14:01;98055.75;;;17.68;100.00
37634;BME280;32048;49.902;22.508;2023-07-20T06:16:28;98063.34;;;17.63;100.00
37634;BME280;32048;49.902;22.508;2023-07-20T06:18:55;98060.53;;;17.45;100.00
37634;BME280;32048;49.902;22.508;2023-07-20T06:21:23;98049.16;;;17.43;100.00
37634;BME280;32048;49.902;22.508;2023-07-20T06:23:50;98032.13;;;17.44;100.00
37634;BME280;32048;49.902;22.508;2023-07-20T06:26:17;98017.69;;;17.47;100.00
37634;BME280;32048;49.902;22.508;2023-07-20T06:28:44;98027.38;;;17.48;100.00
37634;BME280;32048;49.902;22.508;2023-07-20T06:31:11;98036.50;;;17.45;100.00
37634;BME280;32048;49.902;22.508;2023-07-20T06:33:38;98067.41;;;17.38;100.00
37634;BME280;32048;49.902;22.508;2023-07-20T06:36:05;98076.94;;;17.31;100.00
37634;BME280;32048;49.902;22.508;2023-07-20T06:38:32;98049.28;;;17.22;100.00
37634;BME280;32048;49.902;22.508;2023-07-20T06:40:59;98033.53;;;17.19;100.00
37634;BME280;32048;49.902;22.508;2023-07-20T06:43:29;98048.13;;;17.15;100.00
37634;BME280;32048;49.902;22.508;2023-07-20T06:45:59;98054.47;;;17.14;100.00
37634;BME280;32048;49.902;22.508;2023-07-20T06:48:26;98065.56;;;17.09;100.00
37634;BME280;32048;49.902;22.508;2023-07-20T06:50:53;98085.34;;;17.07;100.00
37634;BME280;32048;49.902;22.508;2023-07-20T06:53:20;98078.59;;;17.02;100.00
37634;BME280;32048;49.902;22.508;2023-07-20T06:55:48;98044.75;;;17.03;100.00
37634;BME280;32048;49.902;22.508;2023-07-20T06:58:14;98052.06;;;17.01;100.00
37634;BME280;32048;49.902;22.508;2023-07-20T07:00:42;98061.34;;;17.07;100.00
37634;BME280;32048;49.902;22.508;2023-07-20T07:03:09;98064.44;;;17.02;100.00
37634;BME280;32048;49.902;22.508;2023-07-20T07:05:37;98083.66;;;17.06;100.00
37634;BME280;32048;49.902;22.508;2023-07-20T07:08:05;98088.28;;;17.03;100.00
37634;BME280;32048;49.902;22.508;2023-07-20T07:10:34;98091.09;;;17.02;100.00
37634;BME280;32048;49.902;22.508;2023-07-20T07:13:01;98093.59;;;17.03;100.00
37634;BME280;32048;49.902;22.508;2023-07-20T07:15:29;98098.69;;;17.16;100.00
37634;BME280;32048;49.902;22.508;2023-07-20T07:17:56;98113.06;;;17.35;100.00
37634;BME280;32048;49.902;22.508;2023-07-20T07:20:23;98099.72;;;17.54;100.00
37634;BME280;32048;49.902;22.508;2023-07-20T07:22:50;98089.75;;;17.76;100.00
37634;BME280;32048;49.902;22.508;2023-07-20T07:25:18;98097.38;;;17.90;100.00
37634;BME280;32048;49.902;22.508;2023-07-20T07:27:50;98105.38;;;17.90;100.00
37634;BME280;32048;49.902;22.508;2023-07-20T07:30:18;98123.06;;;17.91;100.00
37634;BME280;32048;49.902;22.508;2023-07-20T07:32:45;98126.59;;;18.01;100.00
37634;BME280;32048;49.902;22.508;2023-07-20T07:35:13;98133.34;;;18.05;100.00
37634;BME280;32048;49.902;22.508;2023-07-20T07:37:39;98132.34;;;18.16;100.00
37634;BME280;32048;49.902;22.508;2023-07-20T07:40:23;98138.66;;;18.25;100.00
37634;BME280;32048;49.902;22.508;2023-07-20T07:42:50;98159.19;;;18.24;100.00
37634;BME280;32048;49.902;22.508;2023-07-20T07:45:20;98157.22;;;18.26;100.00
37634;BME280;32048;49.902;22.508;2023-07-20T07:47:47;98149.03;;;18.38;100.00
37634;BME280;32048;49.902;22.508;2023-07-20T07:50:14;98166.44;;;18.52;100.00
37634;BME280;32048;49.902;22.508;2023-07-20T07:52:41;98172.47;;;18.73;100.00
37634;BME280;32048;49.902;22.508;2023-07-20T07:55:08;98167.59;;;18.96;100.00
37634;BME280;32048;49.902;22.508;2023-07-20T07:57:35;98175.88;;;19.13;100.00
37634;BME280;32048;49.902;22.508;2023-07-20T08:00:03;98201.81;;;19.30;100.00
37634;BME280;32048;49.902;22.508;2023-07-20T08:02:30;98212.09;;;19.35;100.00
37634;BME280;32048;49.902;22.508;2023-07-20T08:04:58;98217.59;;;19.33;100.00
37634;BME280;32048;49.902;22.508;2023-07-20T08:07:27;98235.22;;;19.26;100.00
37634;BME280;32048;49.902;22.508;2023-07-20T08:09:55;98223.44;;;19.19;100.00
37634;BME280;32048;49.902;22.508;2023-07-20T08:12:22;98209.53;;;19.15;100.00
37634;BME280;32048;49.902;22.508;2023-07-20T08:14:49;98202.00;;;19.19;100.00
37634;BME280;32048;49.902;22.508;2023-07-20T08:17:16;98215.22;;;19.30;100.00
37634;BME280;32048;49.902;22.508;2023-07-20T08:19:46;98223.03;;;19.41;100.00
37634;BME280;32048;49.902;22.508;2023-07-20T08:22:13;98210.16;;;19.55;100.00
37634;BME280;32048;49.902;22.508;2023-07-20T08:24:41;98204.06;;;19.62;100.00
37634;BME280;32048;49.902;22.508;2023-07-20T08:27:09;98205.91;;;19.80;100.00
37634;BME280;32048;49.902;22.508;2023-07-20T08:29:37;98221.59;;;20.02;100.00
37634;BME280;32048;49.902;22.508;2023-07-20T08:32:05;98213.75;;;20.27;100.00
37634;BME280;32048;49.902;22.508;2023-07-20T08:34:33;98223.00;;;20.32;100.00
37634;BME280;32048;49.902;22.508;2023-07-20T08:37:00;98220.31;;;20.50;100.00
37634;BME280;32048;49.902;22.508;2023-07-20T08:39:27;98209.44;;;20.70;100.00
37634;BME280;32048;49.902;22.508;2023-07-20T08:41:54;98207.47;;;20.80;100.00
37634;BME280;32048;49.902;22.508;2023-07-20T08:44:22;98195.56;;;20.83;100.00
37634;BME280;32048;49.902;22.508;2023-07-20T08:46:51;98195.75;;;20.81;100.00
37634;BME280;32048;49.902;22.508;2023-07-20T08:49:19;98187.00;;;20.79;100.00
37634;BME280;32048;49.902;22.508;2023-07-20T08:51:48;98183.63;;;20.77;100.00
37634;BME280;32048;49.902;22.508;2023-07-20T08:54:15;98198.50;;;20.71;100.00
37634;BME280;32048;49.902;22.508;2023-07-20T08:56:45;98189.78;;;20.69;100.00
37634;BME280;32048;49.902;22.508;2023-07-20T08:59:17;98194.78;;;20.64;100.00
37634;BME280;32048;49.902;22.508;2023-07-20T09:01:45;98187.44;;;20.66;100.00
37634;BME280;32048;49.902;22.508;2023-07-20T09:04:13;98191.63;;;20.69;100.00
37634;BME280;32048;49.902;22.508;2023-07-20T09:06:40;98183.31;;;20.80;100.00
37634;BME280;32048;49.902;22.508;2023-07-20T09:09:11;98178.22;;;20.95;100.00
37634;BME280;32048;49.902;22.508;2023-07-20T09:11:38;98187.84;;;21.14;100.00
37634;BME280;32048;49.902;22.508;2023-07-20T09:14:09;98185.69;;;21.44;98.77
37634;BME280;32048;49.902;22.508;2023-07-20T09:16:52;98186.75;;;21.75;94.99
37634;BME280;32048;49.902;22.508;2023-07-20T09:19:21;98187.78;;;21.99;93.58
37634;BME280;32048;49.902;22.508;2023-07-20T09:21:49;98187.63;;;22.17;92.18
37634;BME280;32048;49.902;22.508;2023-07-20T09:24:20;98185.50;;;22.29;89.99
37634;BME280;32048;49.902;22.508;2023-07-20T09:26:48;98202.28;;;22.31;90.89
37634;BME280;32048;49.902;22.508;2023-07-20T09:29:18;98202.97;;;22.33;90.67
37634;BME280;32048;49.902;22.508;2023-07-20T09:32:01;98213.91;;;22.39;91.41
37634;BME280;32048;49.902;22.508;2023-07-20T09:34:30;98211.22;;;22.48;91.31
37634;BME280;32048;49.902;22.508;2023-07-20T09:37:02;98215.25;;;22.52;90.93
37634;BME280;32048;49.902;22.508;2023-07-20T09:39:31;98218.78;;;22.52;90.56
37634;BME280;32048;49.902;22.508;2023-07-20T09:42:01;98220.63;;;22.52;87.20
37634;BME280;32048;49.902;22.508;2023-07-20T09:44:32;98224.66;;;22.48;86.77
37634;BME280;32048;49.902;22.508;2023-07-20T09:47:03;98224.16;;;22.44;87.97
37634;BME280;32048;49.902;22.508;2023-07-20T09:49:32;98214.94;;;22.47;89.08
37634;BME280;32048;49.902;22.508;2023-07-20T09:52:19;98217.59;;;22.55;88.28
37634;BME280;32048;49.902;22.508;2023-07-20T09:54:50;98214.22;;;22.53;86.95
37634;BME280;32048;49.902;22.508;2023-07-20T09:57:17;98222.97;;;22.55;86.50
37634;BME280;32048;49.902;22.508;2023-07-20T09:59:45;98223.81;;;22.55;87.69
37634;BME280;32048;49.902;22.508;2023-07-20T10:02:25;98219.94;;;22.66;88.95
37634;BME280;32048;49.902;22.508;2023-07-20T10:04:55;98218.75;;;23.01;89.94
37634;BME280;32048;49.902;22.508;2023-07-20T10:07:26;98224.75;;;23.20;84.28
37634;BME280;32048;49.902;22.508;2023-07-20T10:09:55;98223.69;;;23.29;81.39
37634;BME280;32048;49.902;22.508;2023-07-20T10:12:25;98230.59;;;23.32;80.13
37634;BME280;32048;49.902;22.508;2023-07-20T10:15:15;98228.47;;;23.11;79.53
37634;BME280;32048;49.902;22.508;2023-07-20T10:20:53;98231.38;;;23.49;78.73
37634;BME280;32048;49.902;22.508;2023-07-20T10:23:23;98230.94;;;23.76;75.64
37634;BME280;32048;49.902;22.508;2023-07-20T10:25:50;98228.47;;;23.98;75.61
37634;BME280;32048;49.902;22.508;2023-07-20T10:28:17;98229.50;;;24.20;72.78
37634;BME280;32048;49.902;22.508;2023-07-20T10:30:46;98226.84;;;24.12;76.12
37634;BME280;32048;49.902;22.508;2023-07-20T10:33:13;98228.09;;;24.55;73.65
37634;BME280;32048;49.902;22.508;2023-07-20T10:35:54;98224.72;;;25.50;70.15
37634;BME280;32048;49.902;22.508;2023-07-20T10:41:19;98234.88;;;27.07;61.82
37634;BME280;32048;49.902;22.508;2023-07-20T10:43:48;98235.25;;;27.74;59.10
37634;BME280;32048;49.902;22.508;2023-07-20T10:46:33;98224.50;;;27.87;57.30
37634;BME280;32048;49.902;22.508;2023-07-20T10:49:05;98220.41;;;28.45;56.84
37634;BME280;32048;49.902;22.508;2023-07-20T10:51:43;98218.97;;;29.02;55.77
37634;BME280;32048;49.902;22.508;2023-07-20T10:56:47;98214.88;;;30.10;48.29
37634;BME280;32048;49.902;22.508;2023-07-20T10:59:38;98218.78;;;30.27;48.07
37634;BME280;32048;49.902;22.508;2023-07-20T11:02:08;98218.84;;;30.71;46.71
37634;BME280;32048;49.902;22.508;2023-07-20T11:04:42;98225.22;;;31.33;46.49
37634;BME280;32048;49.902;22.508;2023-07-20T11:07:10;98219.75;;;31.88;43.28
37634;BME280;32048;49.902;22.508;2023-07-20T11:09:41;98224.63;;;31.86;41.30
37634;BME280;32048;49.902;22.508;2023-07-20T11:12:17;98213.00;;;31.36;43.02
37634;BME280;32048;49.902;22.508;2023-07-20T11:14:55;98214.59;;;31.25;44.14
37634;BME280;32048;49.902;22.508;2023-07-20T11:17:30;98206.25;;;31.38;44.42
37634;BME280;32048;49.902;22.508;2023-07-20T11:19:58;98206.84;;;31.96;43.52
37634;BME280;32048;49.902;22.508;2023-07-20T11:22:31;98207.31;;;32.23;42.04
37634;BME280;32048;49.902;22.508;2023-07-20T11:24:58;98199.09;;;31.62;40.04
37634;BME280;32048;49.902;22.508;2023-07-20T11:27:25;98207.03;;;31.82;40.68
37634;BME280;32048;49.902;22.508;2023-07-20T11:29:53;98200.03;;;32.17;38.72
37634;BME280;32048;49.902;22.508;2023-07-20T11:32:22;98198.22;;;32.41;39.09
37634;BME280;32048;49.902;22.508;2023-07-20T11:34:49;98194.22;;;31.95;38.19
37634;BME280;32048;49.902;22.508;2023-07-20T11:37:20;98187.09;;;32.12;37.98
37634;BME280;32048;49.902;22.508;2023-07-20T11:39:47;98187.28;;;31.99;38.41
37634;BME280;32048;49.902;22.508;2023-07-20T11:42:15;98182.16;;;31.72;39.17
37634;BME280;32048;49.902;22.508;2023-07-20T11:44:44;98189.97;;;31.13;39.08
37634;BME280;32048;49.902;22.508;2023-07-20T11:47:12;98182.50;;;30.58;40.44
37634;BME280;32048;49.902;22.508;2023-07-20T11:49:42;98166.78;;;30.29;41.84
37634;BME280;32048;49.902;22.508;2023-07-20T11:52:11;98159.69;;;30.21;40.64
37634;BME280;32048;49.902;22.508;2023-07-20T11:54:41;98164.97;;;30.48;43.09
37634;BME280;32048;49.902;22.508;2023-07-20T11:57:17;98156.88;;;30.84;41.42
37634;BME280;32048;49.902;22.508;2023-07-20T11:59:54;98147.31;;;31.37;39.33
37634;BME280;32048;49.902;22.508;2023-07-20T12:02:29;98153.63;;;31.86;37.85
37634;BME280;32048;49.902;22.508;2023-07-20T12:04:57;98154.22;;;32.19;37.88
37634;BME280;32048;49.902;22.508;2023-07-20T12:07:27;98153.31;;;32.48;37.19
37634;BME280;32048;49.902;22.508;2023-07-20T12:10:11;98147.34;;;32.40;38.12
37634;BME280;32048;49.902;22.508;2023-07-20T12:12:40;98151.16;;;32.50;37.24
37634;BME280;32048;49.902;22.508;2023-07-20T12:17:51;98144.88;;;32.38;37.48
37634;BME280;32048;49.902;22.508;2023-07-20T12:20:30;98147.31;;;32.16;36.40
37634;BME280;32048;49.902;22.508;2023-07-20T12:23:17;98146.03;;;31.88;38.24
37634;BME280;32048;49.902;22.508;2023-07-20T12:25:45;98151.84;;;31.62;37.62
37634;BME280;32048;49.902;22.508;2023-07-20T12:28:15;98155.66;;;31.24;38.23
37634;BME280;32048;49.902;22.508;2023-07-20T12:30:43;98152.91;;;30.80;39.05
37634;BME280;32048;49.902;22.508;2023-07-20T12:33:13;98153.63;;;30.51;40.25
37634;BME280;32048;49.902;22.508;2023-07-20T12:35:44;98147.34;;;30.50;41.43
37634;BME280;32048;49.902;22.508;2023-07-20T12:38:29;98134.41;;;30.14;40.03
37634;BME280;32048;49.902;22.508;2023-07-20T12:40:58;98142.38;;;29.77;42.86
37634;BME280;32048;49.902;22.508;2023-07-20T12:43:25;98136.03;;;29.45;41.56
37634;BME280;32048;49.902;22.508;2023-07-20T12:45:52;98140.97;;;29.09;42.24
37634;BME280;32048;49.902;22.508;2023-07-20T12:48:20;98128.25;;;28.83;44.09
37634;BME280;32048;49.902;22.508;2023-07-20T12:50:47;98124.34;;;28.59;45.38
37634;BME280;32048;49.902;22.508;2023-07-20T12:53:14;98128.53;;;28.55;47.09
37634;BME280;32048;49.902;22.508;2023-07-20T12:55:41;98126.44;;;28.57;45.22
37634;BME280;32048;49.902;22.508;2023-07-20T12:58:09;98124.13;;;28.54;43.64
37634;BME280;32048;49.902;22.508;2023-07-20T13:00:36;98126.66;;;28.49;45.65
37634;BME280;32048;49.902;22.508;2023-07-20T13:03:03;98124.13;;;28.47;46.13
37634;BME280;32048;49.902;22.508;2023-07-20T13:05:35;98129.78;;;28.52;45.68
37634;BME280;32048;49.902;22.508;2023-07-20T13:08:05;98125.34;;;28.38;46.51
37634;BME280;32048;49.902;22.508;2023-07-20T13:10:35;98121.81;;;28.31;45.78
37634;BME280;32048;49.902;22.508;2023-07-20T13:13:02;98116.59;;;28.29;46.53
37634;BME280;32048;49.902;22.508;2023-07-20T13:15:31;98118.66;;;28.34;46.49